Terminal Aerodrome Forecast
Issued by NWS Miami, FL

Current Version | Previous Version | Text Only | Print | Product List | Glossary On
Versions: 1 2 3 4 5 6 7 8 9 10 11 12 13 14 15 16 17 18 19 20 21 22 23 24 25
000
FTUS42 KMFL 172320
TAFPBI
TAF
KPBI 172320Z 1800/1824 06010KT P6SM VCSH SCT025 SCT050 BKN250
     FM180400 VRB04KT P6SM VCSH SCT025 BKN030
     FM181400 04008KT P6SM VCSH SCT020 BKN030=

USA.gov is the U.S. government's official web portal to all federal, state and local government web resources and services.